createdAt,value
2019-03-11T00:01:03.378Z,99871.77
2019-03-11T00:03:34.512Z,99868.53
2019-03-11T00:06:05.768Z,99863.44
2019-03-11T00:08:36.997Z,99871.72
2019-03-11T00:11:08.153Z,99868.53
2019-03-11T00:13:39.320Z,99881.38
2019-03-11T00:16:10.498Z,99873.75
2019-03-11T00:18:41.620Z,99862.95
2019-03-11T00:21:12.764Z,99867.17
2019-03-11T00:23:43.899Z,99862.33
2019-03-11T00:26:15.167Z,99862.59
2019-03-11T00:28:46.275Z,99849.80
2019-03-11T00:31:17.328Z,99853.50
2019-03-11T00:33:48.395Z,99840.28
2019-03-11T00:36:19.464Z,99845.03
2019-03-11T00:38:50.723Z,99834.77
2019-03-11T00:41:21.746Z,99834.89
2019-03-11T00:43:52.924Z,99836.13
2019-03-11T00:46:24.026Z,99846.13
2019-03-11T00:48:55.055Z,99845.56
2019-03-11T00:51:26.170Z,99834.39
2019-03-11T00:53:57.190Z,99838.66
2019-03-11T00:56:28.410Z,99840.00
2019-03-11T00:59:00.462Z,99834.86
2019-03-11T01:01:31.652Z,99834.23
2019-03-11T01:04:02.817Z,99840.83
2019-03-11T01:06:33.932Z,99843.03
2019-03-11T01:09:06.589Z,99844.12
2019-03-11T01:11:38.952Z,99858.66
2019-03-11T01:14:10.048Z,99852.08
2019-03-11T01:16:41.157Z,99859.22
2019-03-11T01:19:12.365Z,99861.15
2019-03-11T01:21:43.551Z,99871.64
2019-03-11T01:24:14.662Z,99865.72
2019-03-11T01:26:45.806Z,99861.06
2019-03-11T01:29:16.973Z,99867.57
2019-03-11T01:31:48.170Z,99862.98
2019-03-11T01:34:19.256Z,99859.62
2019-03-11T01:36:50.534Z,99854.97
2019-03-11T01:39:22.734Z,99859.88
2019-03-11T01:41:53.789Z,99850.33
2019-03-11T01:44:24.775Z,99849.69
2019-03-11T01:46:55.951Z,99851.92
2019-03-11T01:49:27.171Z,99849.93
2019-03-11T01:51:58.354Z,99842.56
2019-03-11T01:54:29.499Z,99845.27
2019-03-11T01:57:00.679Z,99845.20
2019-03-11T01:59:31.777Z,99851.77
2019-03-11T02:02:03.109Z,99854.15
2019-03-11T02:04:34.302Z,99851.53
2019-03-11T02:07:05.351Z,99867.91
2019-03-11T02:09:36.472Z,99868.53
2019-03-11T02:12:07.485Z,99871.63
2019-03-11T02:14:38.580Z,99872.27
2019-03-11T02:17:10.754Z,99872.02
2019-03-11T02:19:41.714Z,99868.51
2019-03-11T02:22:12.832Z,99862.73
2019-03-11T02:24:43.904Z,99858.06
2019-03-11T02:27:14.913Z,99857.47
2019-03-11T02:29:45.972Z,99859.05
2019-03-11T02:32:17.079Z,99853.70
2019-03-11T02:34:48.083Z,99845.62
2019-03-11T02:37:20.249Z,99841.41
2019-03-11T02:39:51.522Z,99837.13
2019-03-11T02:42:22.500Z,99825.53
2019-03-11T02:44:53.576Z,99824.77
2019-03-11T02:47:24.751Z,99817.64
2019-03-11T02:49:55.886Z,99812.33
2019-03-11T02:52:27.001Z,99816.88
2019-03-11T02:54:59.073Z,99808.60
2019-03-11T02:57:30.147Z,99802.84
2019-03-11T03:00:01.211Z,99797.27
2019-03-11T03:02:41.125Z,99795.09
2019-03-11T03:05:13.842Z,99793.91
2019-03-11T03:07:45.097Z,99786.14
2019-03-11T03:10:16.377Z,99764.86
2019-03-11T03:12:47.488Z,99760.86
2019-03-11T03:15:18.523Z,99755.46
2019-03-11T03:17:49.586Z,99754.53
2019-03-11T03:20:20.716Z,99742.86
2019-03-11T03:22:51.775Z,99741.02
2019-03-11T03:25:34.089Z,99744.70
2019-03-11T03:27:55.735Z,99746.17
2019-03-11T03:30:26.765Z,99740.81
2019-03-11T03:32:57.854Z,99735.13
2019-03-11T03:35:28.799Z,99732.17
2019-03-11T03:37:59.931Z,99725.75
2019-03-11T03:40:30.995Z,99731.31
2019-03-11T03:43:02.361Z,99731.91
2019-03-11T03:45:35.804Z,99718.56
2019-03-11T03:48:07.036Z,99717.48
2019-03-11T03:50:39.477Z,99701.26
2019-03-11T03:53:10.535Z,99701.95
2019-03-11T03:55:44.941Z,99700.47
2019-03-11T03:58:16.004Z,99699.77
2019-03-11T04:00:47.992Z,99690.65
2019-03-11T04:03:19.256Z,99691.44
2019-03-11T04:05:50.279Z,99688.47
2019-03-11T04:08:24.319Z,99674.63
2019-03-11T04:10:55.462Z,99669.91
2019-03-11T04:13:26.550Z,99667.55
2019-03-11T04:15:57.762Z,99662.62
2019-03-11T04:18:32.127Z,99654.36
2019-03-11T04:21:03.422Z,99655.04
2019-03-11T04:23:34.904Z,99657.44
2019-03-11T04:26:06.012Z,99643.92
2019-03-11T04:28:37.345Z,99654.41
2019-03-11T04:31:08.415Z,99653.08
2019-03-11T04:33:39.658Z,99652.55
2019-03-11T04:36:10.750Z,99640.23
2019-03-11T04:38:42.019Z,99635.66
2019-03-11T04:41:13.261Z,99636.33
2019-03-11T04:43:44.557Z,99641.08
2019-03-11T04:46:17.287Z,99635.50
2019-03-11T04:48:49.324Z,99643.09
2019-03-11T04:51:20.476Z,99643.57
2019-03-11T04:53:51.598Z,99633.58
2019-03-11T04:56:22.737Z,99625.30
2019-03-11T04:58:53.765Z,99620.57
2019-03-11T05:01:24.719Z,99621.91
2019-03-11T05:03:55.803Z,99617.83
2019-03-11T05:06:27.155Z,99622.23
2019-03-11T05:08:58.262Z,99618.84
2019-03-11T05:11:29.400Z,99624.66
2019-03-11T05:14:00.526Z,99615.52
2019-03-11T05:16:31.600Z,99615.52
2019-03-11T05:19:02.779Z,99606.69
2019-03-11T05:21:33.928Z,99604.48
2019-03-11T05:24:05.177Z,99594.83
2019-03-11T05:26:36.296Z,99591.62
2019-03-11T05:29:07.416Z,99585.38
2019-03-11T05:31:38.763Z,99591.14
2019-03-11T05:34:11.939Z,99588.08
2019-03-11T05:36:42.658Z,99578.06
2019-03-11T05:39:13.783Z,99567.93
2019-03-11T05:41:45.087Z,99567.05
2019-03-11T05:44:17.744Z,99564.84
2019-03-11T05:46:50.423Z,99560.75
2019-03-11T05:49:22.675Z,99555.19
2019-03-11T05:51:53.851Z,99551.27
2019-03-11T05:54:25.070Z,99547.39
2019-03-11T05:56:58.957Z,99541.47
2019-03-11T05:59:29.152Z,99534.58
2019-03-11T06:02:00.234Z,99530.52
2019-03-11T06:04:31.451Z,99523.40
2019-03-11T06:07:02.519Z,99519.52
2019-03-11T06:09:33.738Z,99517.91
2019-03-11T06:12:04.738Z,99514.17
2019-03-11T06:14:35.865Z,99512.24
2019-03-11T06:17:06.834Z,99509.66
2019-03-11T06:19:38.003Z,99502.12
2019-03-11T06:22:13.741Z,99498.67
2019-03-11T06:24:44.931Z,99485.12
2019-03-11T06:27:16.016Z,99482.24
2019-03-11T06:29:47.157Z,99461.69
2019-03-11T06:32:18.237Z,99453.99
2019-03-11T06:34:49.513Z,99449.87
2019-03-11T06:37:20.749Z,99428.98
2019-03-11T06:39:52.004Z,99419.31
2019-03-11T06:42:23.164Z,99417.13
2019-03-11T06:44:54.372Z,99412.06
2019-03-11T06:47:26.881Z,99411.84
2019-03-11T06:49:58.080Z,99418.02
2019-03-11T06:52:29.409Z,99410.33
2019-03-11T06:55:00.449Z,99409.77
2019-03-11T06:57:31.536Z,99399.61
2019-03-11T07:00:02.835Z,99398.70
2019-03-11T07:02:33.983Z,99379.94
2019-03-11T07:05:05.158Z,99369.66
2019-03-11T07:07:36.313Z,99356.88
2019-03-11T07:10:10.413Z,99358.80
2019-03-11T07:12:41.427Z,99351.91
2019-03-11T07:15:14.927Z,99352.23
2019-03-11T07:17:46.946Z,99343.14
2019-03-11T07:20:18.949Z,99339.41
2019-03-11T07:22:50.055Z,99339.41
2019-03-11T07:25:21.147Z,99323.56
2019-03-11T07:27:52.162Z,99320.55
2019-03-11T07:30:23.248Z,99314.16
2019-03-11T07:32:54.191Z,99309.51
2019-03-11T07:35:25.155Z,99293.09
2019-03-11T07:37:58.363Z,99292.02
2019-03-11T07:40:30.551Z,99300.34
2019-03-11T07:43:04.162Z,99297.92
2019-03-11T07:45:35.182Z,99290.59
2019-03-11T07:48:06.279Z,99281.75
2019-03-11T07:50:37.328Z,99281.66
2019-03-11T07:53:08.530Z,99267.31
2019-03-11T07:55:39.575Z,99268.46
2019-03-11T07:58:10.629Z,99259.63
2019-03-11T08:00:53.023Z,99249.56
2019-03-11T08:03:17.198Z,99251.03
2019-03-11T08:05:48.368Z,99236.80
2019-03-11T08:08:19.465Z,99241.38
2019-03-11T08:10:50.533Z,99230.36
2019-03-11T08:13:23.279Z,99223.64
2019-03-11T08:15:54.434Z,99236.84
2019-03-11T08:18:34.424Z,99224.48
2019-03-11T08:20:58.459Z,99219.16
2019-03-11T08:23:29.686Z,99210.16
2019-03-11T08:26:00.782Z,99213.82
2019-03-11T08:28:31.892Z,99204.36
2019-03-11T08:31:02.932Z,99212.84
2019-03-11T08:33:34.128Z,99220.86
2019-03-11T08:36:07.280Z,99207.58
2019-03-11T08:38:39.354Z,99205.98
2019-03-11T08:41:10.379Z,99208.94
2019-03-11T08:43:41.768Z,99200.80
2019-03-11T08:46:13.911Z,99198.10
2019-03-11T08:48:44.976Z,99200.92
2019-03-11T08:51:15.994Z,99187.37
2019-03-11T08:53:47.171Z,99176.77
2019-03-11T08:56:18.153Z,99172.30
2019-03-11T08:58:49.186Z,99167.20
2019-03-11T09:01:20.306Z,99168.78
2019-03-11T09:03:51.474Z,99159.75
2019-03-11T09:06:22.535Z,99161.63
2019-03-11T09:08:53.613Z,99164.26
2019-03-11T09:11:24.745Z,99167.64
2019-03-11T09:13:55.735Z,99168.00
2019-03-11T09:16:26.666Z,99158.42
2019-03-11T09:18:58.094Z,99150.08
2019-03-11T09:21:29.021Z,99145.02
2019-03-11T09:24:00.213Z,99153.49
2019-03-11T09:26:31.340Z,99146.20
2019-03-11T09:29:02.382Z,99155.02
2019-03-11T09:31:33.884Z,99152.55
2019-03-11T09:34:04.974Z,99156.00
2019-03-11T09:36:36.170Z,99141.95
2019-03-11T09:39:08.950Z,99150.99
2019-03-11T09:41:43.251Z,99151.80
2019-03-11T09:44:14.455Z,99147.23
2019-03-11T09:46:45.443Z,99139.70
2019-03-11T09:49:16.533Z,99134.95
2019-03-11T09:51:48.292Z,99132.94
2019-03-11T09:54:19.664Z,99141.06
2019-03-11T09:56:51.115Z,99148.55
2019-03-11T09:59:22.353Z,99132.56
2019-03-11T10:01:53.558Z,99139.61
2019-03-11T10:04:24.687Z,99137.50
2019-03-11T10:06:55.973Z,99121.89
2019-03-11T10:09:27.156Z,99125.21
2019-03-11T10:11:58.429Z,99102.92
2019-03-11T10:14:29.502Z,99099.84
2019-03-11T10:17:01.699Z,99093.39
2019-03-11T10:19:32.926Z,99098.27
2019-03-11T10:22:04.288Z,99088.45
2019-03-11T10:24:35.733Z,99085.72
2019-03-11T10:27:06.784Z,99081.53
2019-03-11T10:29:37.880Z,99089.44
2019-03-11T10:32:09.053Z,99086.55
2019-03-11T10:34:40.138Z,99099.02
2019-03-11T10:37:11.416Z,99098.34
2019-03-11T10:39:42.521Z,99102.02
2019-03-11T10:42:13.578Z,99091.32
2019-03-11T10:44:44.779Z,99096.85
2019-03-11T10:47:15.948Z,99099.12
2019-03-11T10:49:46.997Z,99094.17
2019-03-11T10:52:17.940Z,99097.84
2019-03-11T10:54:48.866Z,99086.97
2019-03-11T10:57:19.906Z,99085.88
2019-03-11T10:59:51.044Z,99087.17
2019-03-11T11:02:22.134Z,99089.59
2019-03-11T11:04:53.191Z,99093.21
2019-03-11T11:07:24.266Z,99075.70
2019-03-11T11:09:55.423Z,99086.77
2019-03-11T11:12:26.721Z,99088.89
2019-03-11T11:14:57.822Z,99085.16
2019-03-11T11:17:28.962Z,99073.67
2019-03-11T11:20:03.655Z,99082.83
2019-03-11T11:22:34.294Z,99075.96
2019-03-11T11:25:09.171Z,99066.64
2019-03-11T11:27:40.484Z,99082.09
2019-03-11T11:30:19.460Z,99086.16
2019-03-11T11:32:50.689Z,99091.36
2019-03-11T11:35:21.839Z,99095.89
2019-03-11T11:37:53.131Z,99094.34
2019-03-11T11:40:26.264Z,99087.03
2019-03-11T11:42:57.215Z,99089.96
2019-03-11T11:45:32.186Z,99080.80
2019-03-11T11:48:03.325Z,99081.44
2019-03-11T11:50:34.473Z,99082.09
2019-03-11T11:53:05.650Z,99076.29
2019-03-11T11:55:36.927Z,99083.59
2019-03-11T11:58:08.152Z,99085.54
2019-03-11T12:00:40.959Z,99090.69
2019-03-11T12:03:12.320Z,99099.80
2019-03-11T12:05:43.332Z,99116.05
2019-03-11T12:08:14.564Z,99106.95
2019-03-11T12:10:45.596Z,99101.41
2019-03-11T12:13:16.898Z,99109.87
2019-03-11T12:15:48.078Z,99110.19
2019-03-11T12:18:19.254Z,99118.89
2019-03-11T12:20:50.284Z,99123.38
2019-03-11T12:23:21.473Z,99125.91
2019-03-11T12:25:52.650Z,99127.97
2019-03-11T12:28:23.853Z,99121.27
2019-03-11T12:30:54.932Z,99138.34
2019-03-11T12:33:26.114Z,99131.72
2019-03-11T12:35:57.348Z,99116.16
2019-03-11T12:38:28.932Z,99128.81
2019-03-11T12:41:00.204Z,99124.52
2019-03-11T12:43:31.376Z,99122.17
2019-03-11T12:46:02.549Z,99122.64
2019-03-11T12:48:34.628Z,99127.92
2019-03-11T12:51:05.643Z,99131.23
2019-03-11T12:53:37.051Z,99128.97
2019-03-11T12:56:08.263Z,99132.05
2019-03-11T12:58:42.062Z,99127.84
2019-03-11T13:01:13.156Z,99128.73
2019-03-11T13:03:44.226Z,99127.73
2019-03-11T13:06:15.209Z,99127.55
2019-03-11T13:08:46.264Z,99128.97
2019-03-11T13:11:17.325Z,99141.60
2019-03-11T13:13:48.389Z,99130.68
2019-03-11T13:16:19.435Z,99130.50
2019-03-11T13:18:50.619Z,99133.42
2019-03-11T13:21:24.527Z,99139.34
2019-03-11T13:23:56.698Z,99140.75
2019-03-11T13:26:28.766Z,99138.23
2019-03-11T13:29:00.053Z,99141.03
2019-03-11T13:31:31.099Z,99148.87
2019-03-11T13:34:02.156Z,99157.34
2019-03-11T13:36:33.224Z,99153.11
2019-03-11T13:39:04.878Z,99157.86
2019-03-11T13:41:36.297Z,99172.25
2019-03-11T13:44:08.092Z,99174.28
2019-03-11T13:46:39.235Z,99177.63
2019-03-11T13:49:10.226Z,99173.17
2019-03-11T13:51:41.278Z,99174.19
2019-03-11T13:54:12.398Z,99186.17
2019-03-11T13:56:43.514Z,99171.89
2019-03-11T13:59:14.580Z,99172.97
2019-03-11T14:01:45.543Z,99182.75
2019-03-11T14:04:16.631Z,99183.50
2019-03-11T14:06:47.842Z,99183.27
2019-03-11T14:09:18.866Z,99184.03
2019-03-11T14:11:49.924Z,99202.52
2019-03-11T14:14:21.133Z,99208.12
2019-03-11T14:16:52.184Z,99204.80
2019-03-11T14:19:23.892Z,99213.89
2019-03-11T14:21:55.442Z,99202.66
2019-03-11T14:24:28.289Z,99205.00
2019-03-11T14:27:00.284Z,99198.97
2019-03-11T14:29:33.162Z,99213.77
2019-03-11T14:32:05.190Z,99207.73
2019-03-11T14:34:36.793Z,99203.16
2019-03-11T14:37:11.195Z,99209.66
2019-03-11T14:39:42.333Z,99203.05
2019-03-11T14:42:13.313Z,99206.38
2019-03-11T14:44:44.453Z,99207.78
2019-03-11T14:47:15.741Z,99206.80
2019-03-11T14:49:46.764Z,99204.11
2019-03-11T14:52:17.734Z,99232.06
2019-03-11T14:54:48.745Z,99270.45
2019-03-11T14:57:19.952Z,99269.25
2019-03-11T14:59:50.993Z,99284.89
2019-03-11T15:02:21.983Z,99306.84
2019-03-11T15:04:53.205Z,99302.99
2019-03-11T15:07:24.143Z,99325.01
2019-03-11T15:09:55.189Z,99326.25
2019-03-11T15:12:26.166Z,99316.32
2019-03-11T15:14:57.182Z,99323.98
2019-03-11T15:17:29.229Z,99324.17
2019-03-11T15:20:00.414Z,99352.69
2019-03-11T15:22:31.412Z,99348.34
2019-03-11T15:25:02.403Z,99352.87
2019-03-11T15:27:33.555Z,99365.11
2019-03-11T15:30:10.092Z,99372.53
2019-03-11T15:32:41.108Z,99376.79
2019-03-11T15:35:12.151Z,99398.85
2019-03-11T15:37:43.144Z,99392.14
2019-03-11T15:40:16.102Z,99405.35
2019-03-11T15:42:47.166Z,99424.48
2019-03-11T15:45:19.267Z,99431.66
2019-03-11T15:47:50.417Z,99433.11
2019-03-11T15:50:30.515Z,99422.28
2019-03-11T15:53:01.493Z,99437.77
2019-03-11T15:55:32.737Z,99428.84
2019-03-11T15:58:03.886Z,99448.75
2019-03-11T16:00:34.985Z,99451.47
2019-03-11T16:03:06.055Z,99464.12
2019-03-11T16:05:38.654Z,99480.77
2019-03-11T16:08:09.622Z,99489.38
2019-03-11T16:10:40.924Z,99486.55
2019-03-11T16:13:11.913Z,99510.78
2019-03-11T16:15:42.897Z,99523.08
2019-03-11T16:18:13.962Z,99519.73
2019-03-11T16:20:45.001Z,99523.63
2019-03-11T16:23:15.977Z,99524.95
2019-03-11T16:25:47.168Z,99550.54
2019-03-11T16:28:18.280Z,99550.54
2019-03-11T16:30:49.516Z,99573.94
2019-03-11T16:33:23.450Z,99558.77
2019-03-11T16:35:54.577Z,99573.82
2019-03-11T16:38:25.649Z,99576.27
2019-03-11T16:40:56.706Z,99597.22
2019-03-11T16:43:27.824Z,99604.33
2019-03-11T16:45:58.902Z,99604.33
2019-03-11T16:48:29.944Z,99603.01
2019-03-11T16:51:00.962Z,99612.61
2019-03-11T16:53:32.030Z,99610.66
2019-03-11T16:56:03.117Z,99626.48
2019-03-11T16:58:34.150Z,99636.42
2019-03-11T17:01:06.897Z,99631.58
2019-03-11T17:03:38.084Z,99648.94
2019-03-11T17:06:10.446Z,99639.27
2019-03-11T17:08:41.586Z,99670.94
2019-03-11T17:11:12.706Z,99657.15
2019-03-11T17:13:44.012Z,99657.15
2019-03-11T17:16:15.221Z,99668.50
2019-03-11T17:18:46.275Z,99680.62
2019-03-11T17:21:18.441Z,99694.63
2019-03-11T17:23:49.582Z,99694.63
2019-03-11T17:26:20.562Z,99686.66
2019-03-11T17:28:51.844Z,99698.33
2019-03-11T17:31:22.960Z,99711.80
2019-03-11T17:33:53.947Z,99729.50
2019-03-11T17:36:26.641Z,99729.50
2019-03-11T17:38:57.986Z,99731.42
2019-03-11T17:41:29.047Z,99719.94
2019-03-11T17:44:00.143Z,99738.84
2019-03-11T17:46:31.386Z,99737.88
2019-03-11T17:49:02.505Z,99739.00
2019-03-11T17:51:33.667Z,99729.13
2019-03-11T17:54:04.867Z,99753.30
2019-03-11T17:56:36.039Z,99753.53
2019-03-11T17:59:08.275Z,99792.41
2019-03-11T18:01:39.359Z,99791.95
2019-03-11T18:04:10.379Z,99795.48
2019-03-11T18:06:41.403Z,99828.33
2019-03-11T18:09:12.382Z,99815.74
2019-03-11T18:11:43.415Z,99812.03
2019-03-11T18:14:14.322Z,99796.28
2019-03-11T18:16:45.508Z,99823.83
2019-03-11T18:19:16.548Z,99823.83
2019-03-11T18:21:47.616Z,99838.44
2019-03-11T18:24:18.667Z,99847.45
2019-03-11T18:26:50.552Z,99847.81
2019-03-11T18:29:21.653Z,99853.89
2019-03-11T18:32:01.549Z,99864.43
2019-03-11T18:34:25.625Z,99862.25
2019-03-11T18:36:57.691Z,99868.00
2019-03-11T18:39:28.778Z,99884.48
2019-03-11T18:41:59.907Z,99887.56
2019-03-11T18:44:31.074Z,99896.39
2019-03-11T18:47:02.120Z,99908.30
2019-03-11T18:49:33.309Z,99912.72
2019-03-11T18:52:04.340Z,99908.51
2019-03-11T18:54:36.951Z,99922.77
2019-03-11T18:57:08.131Z,99925.34
2019-03-11T18:59:39.253Z,99922.44
2019-03-11T19:02:10.457Z,99918.72
2019-03-11T19:04:41.519Z,99926.55
2019-03-11T19:07:12.610Z,99928.07
2019-03-11T19:09:43.657Z,99933.53
2019-03-11T19:12:14.830Z,99939.80
2019-03-11T19:14:45.840Z,99944.72
2019-03-11T19:17:16.918Z,99942.50
2019-03-11T19:19:48.115Z,99953.72
2019-03-11T19:22:19.170Z,99953.69
2019-03-11T19:24:50.152Z,99957.94
2019-03-11T19:27:21.230Z,99972.88
2019-03-11T19:29:52.225Z,99974.71
2019-03-11T19:32:23.191Z,99973.38
2019-03-11T19:34:54.332Z,99984.06
2019-03-11T19:37:25.351Z,99987.63
2019-03-11T19:39:56.342Z,99990.68
2019-03-11T19:42:27.545Z,99989.14
2019-03-11T19:44:58.663Z,99982.38
2019-03-11T19:47:29.743Z,99994.95
2019-03-11T19:50:01.142Z,99997.83
2019-03-11T19:52:34.114Z,99971.73
2019-03-11T19:55:05.937Z,99980.88
2019-03-11T19:57:36.969Z,99987.83
2019-03-11T20:00:11.443Z,99985.95
2019-03-11T20:02:42.562Z,99986.64
2019-03-11T20:05:16.168Z,100002.25
2019-03-11T20:07:47.686Z,99998.38
2019-03-11T20:10:21.855Z,100008.88
2019-03-11T20:12:55.753Z,100000.41
2019-03-11T20:15:26.963Z,100026.67
2019-03-11T20:17:58.166Z,100023.48
2019-03-11T20:20:29.420Z,100017.89
2019-03-11T20:23:00.657Z,100026.20
2019-03-11T20:25:36.335Z,100027.03
2019-03-11T20:28:07.576Z,100024.31
2019-03-11T20:30:38.679Z,100038.59
2019-03-11T20:33:09.986Z,100035.02
2019-03-11T20:35:41.126Z,100034.52
2019-03-11T20:38:12.211Z,100036.03
2019-03-11T20:40:43.242Z,100018.19
2019-03-11T20:43:14.352Z,100030.74
2019-03-11T20:45:45.626Z,100038.67
2019-03-11T20:48:16.802Z,100037.47
2019-03-11T20:50:47.941Z,100025.61
2019-03-11T20:53:19.991Z,100034.05
2019-03-11T20:55:51.064Z,100042.19
2019-03-11T20:58:22.084Z,100037.27
2019-03-11T21:00:53.064Z,100041.50
2019-03-11T21:03:24.185Z,100034.53
2019-03-11T21:06:01.232Z,100041.84
2019-03-11T21:08:32.455Z,100041.45
2019-03-11T21:11:03.601Z,100037.74
2019-03-11T21:13:35.657Z,100046.17
2019-03-11T21:16:06.795Z,100053.94
2019-03-11T21:18:37.935Z,100055.46
2019-03-11T21:21:08.880Z,100067.81
2019-03-11T21:23:41.895Z,100072.34
2019-03-11T21:26:12.766Z,100080.79
2019-03-11T21:28:43.985Z,100085.55
2019-03-11T21:31:18.355Z,100089.41
2019-03-11T21:33:58.507Z,100092.65
2019-03-11T21:36:22.273Z,100075.83
2019-03-11T21:38:53.300Z,100082.76
2019-03-11T21:41:24.390Z,100068.19
2019-03-11T21:43:55.356Z,100095.44
2019-03-11T21:46:26.616Z,100109.95
2019-03-11T21:48:57.565Z,100105.55
2019-03-11T21:51:28.599Z,100107.40
2019-03-11T21:53:59.682Z,100119.54
2019-03-11T21:56:30.737Z,100116.50
2019-03-11T21:59:01.801Z,100121.05
2019-03-11T22:01:32.729Z,100128.64
2019-03-11T22:04:03.872Z,100126.95
2019-03-11T22:06:34.861Z,100126.78
2019-03-11T22:09:07.539Z,100112.20
2019-03-11T22:11:39.088Z,100108.11
2019-03-11T22:14:10.121Z,100111.67
2019-03-11T22:16:41.179Z,100118.75
2019-03-11T22:19:12.386Z,100135.27
2019-03-11T22:21:44.988Z,100144.20
2019-03-11T22:24:16.958Z,100155.02
2019-03-11T22:26:48.119Z,100161.22
2019-03-11T22:29:19.342Z,100169.02
2019-03-11T22:31:50.565Z,100159.39
2019-03-11T22:34:21.747Z,100162.75
2019-03-11T22:36:56.170Z,100162.98
2019-03-11T22:39:27.387Z,100167.34
2019-03-11T22:41:58.316Z,100174.77
2019-03-11T22:44:29.318Z,100181.12
2019-03-11T22:47:00.307Z,100190.59
2019-03-11T22:49:33.369Z,100194.46
2019-03-11T22:52:04.634Z,100197.42
2019-03-11T22:54:35.675Z,100197.48
2019-03-11T22:57:06.682Z,100200.59
2019-03-11T22:59:37.909Z,100201.23
2019-03-11T23:02:11.526Z,100202.92
2019-03-11T23:04:41.632Z,100205.28
2019-03-11T23:07:12.639Z,100209.01
2019-03-11T23:09:43.682Z,100212.45
2019-03-11T23:12:14.657Z,100209.74
2019-03-11T23:14:45.677Z,100208.05
2019-03-11T23:17:16.783Z,100221.08
2019-03-11T23:19:50.180Z,100217.11
2019-03-11T23:22:21.176Z,100215.48
2019-03-11T23:24:52.138Z,100214.16
2019-03-11T23:27:23.105Z,100221.86
2019-03-11T23:29:54.227Z,100236.39
2019-03-11T23:32:25.293Z,100225.14
2019-03-11T23:34:57.199Z,100222.86
2019-03-11T23:37:28.415Z,100223.01
2019-03-11T23:39:59.432Z,100226.69
2019-03-11T23:42:30.575Z,100234.42
2019-03-11T23:45:01.563Z,100229.16
2019-03-11T23:47:34.043Z,100229.12
2019-03-11T23:50:07.407Z,100242.78
2019-03-11T23:52:38.406Z,100244.17
2019-03-11T23:55:10.598Z,100236.97
2019-03-11T23:57:41.538Z,100241.51
